sensor_id;sensor_type;location;lat;lon;timestamp;P1;durP1;ratioP1;P2;durP2;ratioP2
75496;SDS011;64074;47.540;19.072;2023-06-04T00:00:42;5.30;;;2.50;;
75496;SDS011;64074;47.540;19.072;2023-06-04T00:03:45;7.85;;;2.90;;
75496;SDS011;64074;47.540;19.072;2023-06-04T00:06:49;6.20;;;3.15;;
75496;SDS011;64074;47.540;19.072;2023-06-04T00:09:52;7.40;;;4.03;;
75496;SDS011;64074;47.540;19.072;2023-06-04T00:12:56;4.60;;;3.10;;
75496;SDS011;64074;47.540;19.072;2023-06-04T00:15:59;4.57;;;2.47;;
75496;SDS011;64074;47.540;19.072;2023-06-04T00:19:02;7.38;;;2.40;;
75496;SDS011;64074;47.540;19.072;2023-06-04T00:22:05;5.88;;;2.33;;
75496;SDS011;64074;47.540;19.072;2023-06-04T00:25:09;3.72;;;2.08;;
75496;SDS011;64074;47.540;19.072;2023-06-04T00:28:12;7.80;;;2.17;;
75496;SDS011;64074;47.540;19.072;2023-06-04T00:31:15;5.53;;;1.80;;
75496;SDS011;64074;47.540;19.072;2023-06-04T00:34:18;5.18;;;2.00;;
75496;SDS011;64074;47.540;19.072;2023-06-04T00:37:21;3.92;;;2.10;;
75496;SDS011;64074;47.540;19.072;2023-06-04T00:40:25;4.93;;;2.53;;
75496;SDS011;64074;47.540;19.072;2023-06-04T00:43:27;4.35;;;2.03;;
75496;SDS011;64074;47.540;19.072;2023-06-04T00:46:34;2.90;;;1.87;;
75496;SDS011;64074;47.540;19.072;2023-06-04T00:49:41;4.35;;;1.90;;
75496;SDS011;64074;47.540;19.072;2023-06-04T00:52:44;4.40;;;2.35;;
75496;SDS011;64074;47.540;19.072;2023-06-04T00:55:47;4.45;;;2.30;;
75496;SDS011;64074;47.540;19.072;2023-06-04T00:58:50;4.70;;;2.10;;
75496;SDS011;64074;47.540;19.072;2023-06-04T01:01:57;5.90;;;2.10;;
75496;SDS011;64074;47.540;19.072;2023-06-04T01:05:06;4.80;;;2.20;;
75496;SDS011;64074;47.540;19.072;2023-06-04T01:08:14;5.72;;;2.35;;
75496;SDS011;64074;47.540;19.072;2023-06-04T01:11:17;3.85;;;2.15;;
75496;SDS011;64074;47.540;19.072;2023-06-04T01:14:21;5.43;;;3.42;;
75496;SDS011;64074;47.540;19.072;2023-06-04T01:17:29;3.00;;;1.70;;
75496;SDS011;64074;47.540;19.072;2023-06-04T01:20:42;4.38;;;2.10;;
75496;SDS011;64074;47.540;19.072;2023-06-04T01:23:49;5.85;;;2.22;;
75496;SDS011;64074;47.540;19.072;2023-06-04T01:27:02;4.30;;;2.33;;
75496;SDS011;64074;47.540;19.072;2023-06-04T01:30:09;4.80;;;2.10;;
75496;SDS011;64074;47.540;19.072;2023-06-04T01:33:13;3.13;;;2.00;;
75496;SDS011;64074;47.540;19.072;2023-06-04T01:36:18;3.00;;;1.90;;
75496;SDS011;64074;47.540;19.072;2023-06-04T01:39:21;4.72;;;1.88;;
75496;SDS011;64074;47.540;19.072;2023-06-04T01:42:24;3.25;;;1.90;;
75496;SDS011;64074;47.540;19.072;2023-06-04T01:45:28;4.07;;;1.60;;
75496;SDS011;64074;47.540;19.072;2023-06-04T01:48:31;3.33;;;1.67;;
75496;SDS011;64074;47.540;19.072;2023-06-04T01:51:37;4.50;;;1.80;;
75496;SDS011;64074;47.540;19.072;2023-06-04T01:54:40;6.43;;;2.00;;
75496;SDS011;64074;47.540;19.072;2023-06-04T01:57:43;3.40;;;1.70;;
75496;SDS011;64074;47.540;19.072;2023-06-04T02:00:47;3.50;;;1.90;;
75496;SDS011;64074;47.540;19.072;2023-06-04T02:03:52;3.70;;;1.60;;
75496;SDS011;64074;47.540;19.072;2023-06-04T02:06:54;4.38;;;1.90;;
75496;SDS011;64074;47.540;19.072;2023-06-04T02:09:58;5.13;;;2.00;;
75496;SDS011;64074;47.540;19.072;2023-06-04T02:13:02;3.28;;;1.58;;
75496;SDS011;64074;47.540;19.072;2023-06-04T02:16:06;5.18;;;1.58;;
75496;SDS011;64074;47.540;19.072;2023-06-04T02:19:09;4.07;;;1.90;;
75496;SDS011;64074;47.540;19.072;2023-06-04T02:22:16;6.53;;;1.73;;
75496;SDS011;64074;47.540;19.072;2023-06-04T02:25:24;5.18;;;1.90;;
75496;SDS011;64074;47.540;19.072;2023-06-04T02:28:26;6.40;;;1.88;;
75496;SDS011;64074;47.540;19.072;2023-06-04T02:31:30;5.93;;;1.85;;
75496;SDS011;64074;47.540;19.072;2023-06-04T02:34:33;3.13;;;1.70;;
75496;SDS011;64074;47.540;19.072;2023-06-04T02:37:39;6.38;;;1.80;;
75496;SDS011;64074;47.540;19.072;2023-06-04T02:40:43;5.18;;;1.73;;
75496;SDS011;64074;47.540;19.072;2023-06-04T02:43:46;3.35;;;1.65;;
75496;SDS011;64074;47.540;19.072;2023-06-04T02:46:49;2.95;;;1.70;;
75496;SDS011;64074;47.540;19.072;2023-06-04T02:49:52;3.53;;;2.00;;
75496;SDS011;64074;47.540;19.072;2023-06-04T02:52:55;3.20;;;1.90;;
75496;SDS011;64074;47.540;19.072;2023-06-04T02:55:58;6.93;;;1.92;;
75496;SDS011;64074;47.540;19.072;2023-06-04T02:59:01;3.67;;;1.70;;
75496;SDS011;64074;47.540;19.072;2023-06-04T03:02:05;3.03;;;1.73;;
75496;SDS011;64074;47.540;19.072;2023-06-04T03:05:09;3.53;;;1.83;;
75496;SDS011;64074;47.540;19.072;2023-06-04T03:08:13;5.45;;;1.90;;
75496;SDS011;64074;47.540;19.072;2023-06-04T03:11:16;4.22;;;1.90;;
75496;SDS011;64074;47.540;19.072;2023-06-04T03:14:22;3.88;;;1.95;;
75496;SDS011;64074;47.540;19.072;2023-06-04T03:17:26;4.10;;;1.88;;
75496;SDS011;64074;47.540;19.072;2023-06-04T03:20:29;2.67;;;1.77;;
75496;SDS011;64074;47.540;19.072;2023-06-04T03:23:32;3.58;;;1.92;;
75496;SDS011;64074;47.540;19.072;2023-06-04T03:26:36;3.10;;;1.90;;
75496;SDS011;64074;47.540;19.072;2023-06-04T03:29:39;4.15;;;2.00;;
75496;SDS011;64074;47.540;19.072;2023-06-04T03:32:42;4.50;;;1.67;;
75496;SDS011;64074;47.540;19.072;2023-06-04T03:35:48;4.00;;;2.07;;
75496;SDS011;64074;47.540;19.072;2023-06-04T03:38:52;3.03;;;1.60;;
75496;SDS011;64074;47.540;19.072;2023-06-04T03:41:55;3.33;;;1.90;;
75496;SDS011;64074;47.540;19.072;2023-06-04T03:45:00;4.72;;;2.03;;
75496;SDS011;64074;47.540;19.072;2023-06-04T03:48:03;4.30;;;1.80;;
75496;SDS011;64074;47.540;19.072;2023-06-04T03:51:11;5.10;;;1.93;;
75496;SDS011;64074;47.540;19.072;2023-06-04T03:54:15;3.78;;;1.80;;
75496;SDS011;64074;47.540;19.072;2023-06-04T03:57:23;3.83;;;2.10;;
75496;SDS011;64074;47.540;19.072;2023-06-04T04:00:26;3.10;;;1.92;;
75496;SDS011;64074;47.540;19.072;2023-06-04T04:03:33;5.22;;;1.83;;
75496;SDS011;64074;47.540;19.072;2023-06-04T04:06:37;3.70;;;2.00;;
75496;SDS011;64074;47.540;19.072;2023-06-04T04:09:41;4.47;;;2.30;;
75496;SDS011;64074;47.540;19.072;2023-06-04T04:12:43;5.82;;;2.22;;
75496;SDS011;64074;47.540;19.072;2023-06-04T04:15:47;3.85;;;2.20;;
75496;SDS011;64074;47.540;19.072;2023-06-04T04:18:55;3.40;;;1.90;;
75496;SDS011;64074;47.540;19.072;2023-06-04T04:21:58;3.30;;;1.47;;
75496;SDS011;64074;47.540;19.072;2023-06-04T04:25:02;4.03;;;2.03;;
75496;SDS011;64074;47.540;19.072;2023-06-04T04:28:06;4.00;;;1.80;;
75496;SDS011;64074;47.540;19.072;2023-06-04T04:31:11;4.55;;;2.10;;
75496;SDS011;64074;47.540;19.072;2023-06-04T04:34:14;2.50;;;1.70;;
75496;SDS011;64074;47.540;19.072;2023-06-04T04:37:17;3.70;;;1.80;;
75496;SDS011;64074;47.540;19.072;2023-06-04T04:40:24;3.95;;;1.90;;
75496;SDS011;64074;47.540;19.072;2023-06-04T04:43:32;5.15;;;2.10;;
75496;SDS011;64074;47.540;19.072;2023-06-04T04:46:44;5.07;;;2.17;;
75496;SDS011;64074;47.540;19.072;2023-06-04T04:49:47;3.63;;;1.88;;
75496;SDS011;64074;47.540;19.072;2023-06-04T04:52:52;3.43;;;1.70;;
75496;SDS011;64074;47.540;19.072;2023-06-04T04:55:55;3.55;;;1.83;;
75496;SDS011;64074;47.540;19.072;2023-06-04T04:58:58;4.78;;;1.77;;
75496;SDS011;64074;47.540;19.072;2023-06-04T05:02:01;2.33;;;1.50;;
75496;SDS011;64074;47.540;19.072;2023-06-04T05:05:05;4.90;;;1.80;;
75496;SDS011;64074;47.540;19.072;2023-06-04T05:08:08;3.60;;;1.70;;
75496;SDS011;64074;47.540;19.072;2023-06-04T05:11:15;5.57;;;1.90;;
75496;SDS011;64074;47.540;19.072;2023-06-04T05:14:19;3.13;;;1.42;;
75496;SDS011;64074;47.540;19.072;2023-06-04T05:17:23;4.38;;;1.63;;
75496;SDS011;64074;47.540;19.072;2023-06-04T05:20:36;2.45;;;1.40;;
75496;SDS011;64074;47.540;19.072;2023-06-04T05:23:43;2.03;;;1.40;;
75496;SDS011;64074;47.540;19.072;2023-06-04T05:26:52;3.05;;;1.40;;
75496;SDS011;64074;47.540;19.072;2023-06-04T05:29:57;4.55;;;2.17;;
75496;SDS011;64074;47.540;19.072;2023-06-04T05:33:01;3.45;;;1.45;;
75496;SDS011;64074;47.540;19.072;2023-06-04T05:36:04;4.22;;;1.70;;
75496;SDS011;64074;47.540;19.072;2023-06-04T05:39:13;5.37;;;1.60;;
75496;SDS011;64074;47.540;19.072;2023-06-04T05:42:31;4.78;;;1.60;;
75496;SDS011;64074;47.540;19.072;2023-06-04T05:45:35;5.90;;;1.77;;
75496;SDS011;64074;47.540;19.072;2023-06-04T05:48:38;4.00;;;1.50;;
75496;SDS011;64074;47.540;19.072;2023-06-04T05:51:41;2.33;;;1.60;;
75496;SDS011;64074;47.540;19.072;2023-06-04T05:54:45;4.20;;;1.80;;
75496;SDS011;64074;47.540;19.072;2023-06-04T05:57:49;3.05;;;1.60;;
75496;SDS011;64074;47.540;19.072;2023-06-04T06:00:54;3.70;;;1.55;;
75496;SDS011;64074;47.540;19.072;2023-06-04T06:03:57;4.38;;;1.80;;
75496;SDS011;64074;47.540;19.072;2023-06-04T06:07:02;3.35;;;1.60;;
75496;SDS011;64074;47.540;19.072;2023-06-04T06:10:05;3.00;;;1.77;;
75496;SDS011;64074;47.540;19.072;2023-06-04T06:13:10;4.57;;;1.65;;
75496;SDS011;64074;47.540;19.072;2023-06-04T06:16:13;4.80;;;1.52;;
75496;SDS011;64074;47.540;19.072;2023-06-04T06:19:16;4.15;;;1.70;;
75496;SDS011;64074;47.540;19.072;2023-06-04T06:22:19;6.13;;;1.95;;
75496;SDS011;64074;47.540;19.072;2023-06-04T06:25:22;2.50;;;1.33;;
75496;SDS011;64074;47.540;19.072;2023-06-04T06:28:39;4.03;;;1.70;;
75496;SDS011;64074;47.540;19.072;2023-06-04T06:31:42;3.05;;;1.52;;
75496;SDS011;64074;47.540;19.072;2023-06-04T06:34:47;4.32;;;1.60;;
75496;SDS011;64074;47.540;19.072;2023-06-04T06:37:50;2.25;;;1.58;;
75496;SDS011;64074;47.540;19.072;2023-06-04T06:40:53;2.87;;;1.40;;
75496;SDS011;64074;47.540;19.072;2023-06-04T06:43:56;3.33;;;1.60;;
75496;SDS011;64074;47.540;19.072;2023-06-04T06:46:59;3.78;;;1.55;;
75496;SDS011;64074;47.540;19.072;2023-06-04T06:50:02;3.55;;;1.50;;
75496;SDS011;64074;47.540;19.072;2023-06-04T06:53:05;2.20;;;1.50;;
75496;SDS011;64074;47.540;19.072;2023-06-04T06:56:07;5.00;;;1.90;;
75496;SDS011;64074;47.540;19.072;2023-06-04T06:59:10;2.92;;;1.30;;
75496;SDS011;64074;47.540;19.072;2023-06-04T07:02:14;2.78;;;1.40;;
75496;SDS011;64074;47.540;19.072;2023-06-04T07:05:17;2.97;;;1.48;;
75496;SDS011;64074;47.540;19.072;2023-06-04T07:08:20;3.45;;;1.40;;
75496;SDS011;64074;47.540;19.072;2023-06-04T07:11:23;2.43;;;1.23;;
75496;SDS011;64074;47.540;19.072;2023-06-04T07:14:28;8.60;;;1.60;;
75496;SDS011;64074;47.540;19.072;2023-06-04T07:17:32;2.95;;;1.70;;
75496;SDS011;64074;47.540;19.072;2023-06-04T07:20:35;2.38;;;1.40;;
75496;SDS011;64074;47.540;19.072;2023-06-04T07:23:38;3.90;;;1.45;;
75496;SDS011;64074;47.540;19.072;2023-06-04T07:26:41;2.80;;;1.60;;
75496;SDS011;64074;47.540;19.072;2023-06-04T07:29:45;2.47;;;1.60;;
75496;SDS011;64074;47.540;19.072;2023-06-04T07:32:48;4.47;;;2.00;;
75496;SDS011;64074;47.540;19.072;2023-06-04T07:35:52;5.13;;;1.50;;
75496;SDS011;64074;47.540;19.072;2023-06-04T07:38:55;2.80;;;1.60;;
75496;SDS011;64074;47.540;19.072;2023-06-04T07:41:58;4.53;;;1.60;;
75496;SDS011;64074;47.540;19.072;2023-06-04T07:45:02;2.70;;;1.48;;
75496;SDS011;64074;47.540;19.072;2023-06-04T07:48:05;2.88;;;1.35;;
75496;SDS011;64074;47.540;19.072;2023-06-04T07:51:08;5.22;;;1.60;;
75496;SDS011;64074;47.540;19.072;2023-06-04T07:54:11;3.17;;;1.70;;
75496;SDS011;64074;47.540;19.072;2023-06-04T07:57:16;6.73;;;1.40;;
75496;SDS011;64074;47.540;19.072;2023-06-04T08:00:19;4.13;;;1.63;;
75496;SDS011;64074;47.540;19.072;2023-06-04T08:03:23;3.65;;;1.73;;
75496;SDS011;64074;47.540;19.072;2023-06-04T08:06:27;7.20;;;1.67;;
75496;SDS011;64074;47.540;19.072;2023-06-04T08:09:30;3.05;;;1.70;;
75496;SDS011;64074;47.540;19.072;2023-06-04T08:12:34;4.27;;;1.60;;
75496;SDS011;64074;47.540;19.072;2023-06-04T08:15:37;2.25;;;1.50;;
75496;SDS011;64074;47.540;19.072;2023-06-04T08:18:40;2.72;;;1.58;;
75496;SDS011;64074;47.540;19.072;2023-06-04T08:21:43;4.43;;;1.65;;
75496;SDS011;64074;47.540;19.072;2023-06-04T08:24:47;3.15;;;1.90;;
75496;SDS011;64074;47.540;19.072;2023-06-04T08:27:50;5.03;;;1.47;;
75496;SDS011;64074;47.540;19.072;2023-06-04T08:30:52;5.80;;;1.77;;
75496;SDS011;64074;47.540;19.072;2023-06-04T08:33:56;3.38;;;1.50;;
75496;SDS011;64074;47.540;19.072;2023-06-04T08:36:58;3.05;;;1.85;;
75496;SDS011;64074;47.540;19.072;2023-06-04T08:40:02;5.45;;;2.00;;
75496;SDS011;64074;47.540;19.072;2023-06-04T08:43:07;7.00;;;1.70;;
75496;SDS011;64074;47.540;19.072;2023-06-04T08:46:10;3.42;;;1.48;;
75496;SDS011;64074;47.540;19.072;2023-06-04T08:49:14;4.70;;;2.00;;
75496;SDS011;64074;47.540;19.072;2023-06-04T08:52:19;3.17;;;1.77;;
75496;SDS011;64074;47.540;19.072;2023-06-04T08:55:23;5.15;;;1.70;;
75496;SDS011;64074;47.540;19.072;2023-06-04T08:58:27;3.60;;;1.93;;
75496;SDS011;64074;47.540;19.072;2023-06-04T09:01:34;4.03;;;1.70;;
75496;SDS011;64074;47.540;19.072;2023-06-04T09:04:40;3.92;;;1.90;;
75496;SDS011;64074;47.540;19.072;2023-06-04T09:07:42;4.05;;;1.80;;
75496;SDS011;64074;47.540;19.072;2023-06-04T09:10:45;3.90;;;1.70;;
75496;SDS011;64074;47.540;19.072;2023-06-04T09:13:55;2.70;;;1.57;;
75496;SDS011;64074;47.540;19.072;2023-06-04T09:17:02;3.13;;;1.48;;
75496;SDS011;64074;47.540;19.072;2023-06-04T09:20:05;2.60;;;1.75;;
75496;SDS011;64074;47.540;19.072;2023-06-04T09:23:14;4.35;;;1.67;;
75496;SDS011;64074;47.540;19.072;2023-06-04T09:26:17;3.35;;;1.67;;
75496;SDS011;64074;47.540;19.072;2023-06-04T09:29:21;2.43;;;1.57;;
75496;SDS011;64074;47.540;19.072;2023-06-04T09:32:24;2.90;;;1.50;;
75496;SDS011;64074;47.540;19.072;2023-06-04T09:35:30;2.47;;;1.40;;
75496;SDS011;64074;47.540;19.072;2023-06-04T09:38:36;3.40;;;1.60;;
75496;SDS011;64074;47.540;19.072;2023-06-04T09:41:41;4.38;;;1.70;;
75496;SDS011;64074;47.540;19.072;2023-06-04T09:44:44;3.00;;;1.60;;
75496;SDS011;64074;47.540;19.072;2023-06-04T09:47:51;5.50;;;1.40;;
75496;SDS011;64074;47.540;19.072;2023-06-04T09:50:53;5.97;;;2.30;;
75496;SDS011;64074;47.540;19.072;2023-06-04T09:53:57;3.85;;;2.10;;
75496;SDS011;64074;47.540;19.072;2023-06-04T09:57:13;4.95;;;2.17;;
75496;SDS011;64074;47.540;19.072;2023-06-04T10:00:20;6.70;;;3.67;;
75496;SDS011;64074;47.540;19.072;2023-06-04T10:03:25;4.13;;;1.90;;
75496;SDS011;64074;47.540;19.072;2023-06-04T10:06:33;3.58;;;1.67;;
75496;SDS011;64074;47.540;19.072;2023-06-04T10:09:38;2.45;;;1.80;;
75496;SDS011;64074;47.540;19.072;2023-06-04T10:12:53;3.10;;;1.55;;
75496;SDS011;64074;47.540;19.072;2023-06-04T10:16:02;3.17;;;1.50;;
75496;SDS011;64074;47.540;19.072;2023-06-04T10:19:06;3.90;;;1.80;;
75496;SDS011;64074;47.540;19.072;2023-06-04T10:22:10;4.88;;;1.70;;
75496;SDS011;64074;47.540;19.072;2023-06-04T10:25:14;2.75;;;1.80;;
75496;SDS011;64074;47.540;19.072;2023-06-04T10:28:22;3.00;;;1.65;;
75496;SDS011;64074;47.540;19.072;2023-06-04T10:31:25;2.70;;;1.70;;
75496;SDS011;64074;47.540;19.072;2023-06-04T10:34:29;3.30;;;1.75;;
75496;SDS011;64074;47.540;19.072;2023-06-04T10:37:33;5.38;;;1.90;;
75496;SDS011;64074;47.540;19.072;2023-06-04T10:40:36;3.40;;;1.98;;
75496;SDS011;64074;47.540;19.072;2023-06-04T10:43:40;2.55;;;1.63;;
75496;SDS011;64074;47.540;19.072;2023-06-04T10:46:43;4.70;;;1.77;;
75496;SDS011;64074;47.540;19.072;2023-06-04T10:49:49;4.35;;;1.85;;
75496;SDS011;64074;47.540;19.072;2023-06-04T10:52:53;5.80;;;1.90;;
75496;SDS011;64074;47.540;19.072;2023-06-04T10:55:57;3.03;;;1.83;;
75496;SDS011;64074;47.540;19.072;2023-06-04T10:59:00;2.35;;;1.88;;
75496;SDS011;64074;47.540;19.072;2023-06-04T11:02:16;6.50;;;2.10;;
75496;SDS011;64074;47.540;19.072;2023-06-04T11:05:19;4.03;;;1.83;;
75496;SDS011;64074;47.540;19.072;2023-06-04T11:08:26;4.22;;;1.80;;
75496;SDS011;64074;47.540;19.072;2023-06-04T11:11:31;3.85;;;1.67;;
75496;SDS011;64074;47.540;19.072;2023-06-04T11:14:35;2.85;;;1.60;;
75496;SDS011;64074;47.540;19.072;2023-06-04T11:17:48;3.10;;;1.70;;
75496;SDS011;64074;47.540;19.072;2023-06-04T11:21:01;7.40;;;1.83;;
75496;SDS011;64074;47.540;19.072;2023-06-04T11:24:04;4.57;;;1.88;;
75496;SDS011;64074;47.540;19.072;2023-06-04T11:27:08;7.55;;;2.00;;
75496;SDS011;64074;47.540;19.072;2023-06-04T11:30:25;7.05;;;2.25;;
75496;SDS011;64074;47.540;19.072;2023-06-04T11:33:44;7.83;;;1.70;;
75496;SDS011;64074;47.540;19.072;2023-06-04T11:36:48;4.32;;;1.90;;
75496;SDS011;64074;47.540;19.072;2023-06-04T11:39:52;5.07;;;2.20;;
75496;SDS011;64074;47.540;19.072;2023-06-04T11:42:55;4.35;;;1.98;;
75496;SDS011;64074;47.540;19.072;2023-06-04T11:45:58;3.15;;;1.75;;
75496;SDS011;64074;47.540;19.072;2023-06-04T11:49:04;2.60;;;1.50;;
75496;SDS011;64074;47.540;19.072;2023-06-04T11:52:07;3.58;;;1.85;;
75496;SDS011;64074;47.540;19.072;2023-06-04T11:55:11;3.72;;;1.90;;
75496;SDS011;64074;47.540;19.072;2023-06-04T11:58:15;2.95;;;1.80;;
75496;SDS011;64074;47.540;19.072;2023-06-04T12:01:18;4.60;;;1.50;;
75496;SDS011;64074;47.540;19.072;2023-06-04T12:04:21;3.50;;;2.03;;
75496;SDS011;64074;47.540;19.072;2023-06-04T12:07:24;4.30;;;2.20;;
75496;SDS011;64074;47.540;19.072;2023-06-04T12:10:27;3.20;;;2.13;;
75496;SDS011;64074;47.540;19.072;2023-06-04T12:13:36;4.45;;;2.47;;
75496;SDS011;64074;47.540;19.072;2023-06-04T12:16:39;3.25;;;2.17;;
75496;SDS011;64074;47.540;19.072;2023-06-04T12:19:46;5.47;;;2.13;;
75496;SDS011;64074;47.540;19.072;2023-06-04T12:22:52;5.32;;;2.20;;
75496;SDS011;64074;47.540;19.072;2023-06-04T12:25:55;4.32;;;2.15;;
75496;SDS011;64074;47.540;19.072;2023-06-04T12:29:06;3.05;;;2.08;;
75496;SDS011;64074;47.540;19.072;2023-06-04T12:32:16;5.10;;;2.08;;
75496;SDS011;64074;47.540;19.072;2023-06-04T12:35:19;4.20;;;2.00;;
75496;SDS011;64074;47.540;19.072;2023-06-04T12:38:22;6.38;;;2.42;;
75496;SDS011;64074;47.540;19.072;2023-06-04T12:41:25;4.35;;;2.08;;
75496;SDS011;64074;47.540;19.072;2023-06-04T12:44:31;3.50;;;2.17;;
75496;SDS011;64074;47.540;19.072;2023-06-04T12:47:37;3.95;;;2.20;;
75496;SDS011;64074;47.540;19.072;2023-06-04T12:50:40;4.27;;;2.23;;
75496;SDS011;64074;47.540;19.072;2023-06-04T12:53:44;4.82;;;2.25;;
75496;SDS011;64074;47.540;19.072;2023-06-04T12:56:47;3.42;;;2.35;;
75496;SDS011;64074;47.540;19.072;2023-06-04T12:59:50;4.65;;;1.95;;
75496;SDS011;64074;47.540;19.072;2023-06-04T13:02:54;3.47;;;2.05;;
75496;SDS011;64074;47.540;19.072;2023-06-04T13:05:58;3.03;;;2.40;;
75496;SDS011;64074;47.540;19.072;2023-06-04T13:09:01;4.10;;;2.05;;
75496;SDS011;64074;47.540;19.072;2023-06-04T13:12:11;3.15;;;2.10;;
75496;SDS011;64074;47.540;19.072;2023-06-04T13:15:15;4.20;;;2.20;;
75496;SDS011;64074;47.540;19.072;2023-06-04T13:18:21;4.63;;;2.13;;
75496;SDS011;64074;47.540;19.072;2023-06-04T13:21:24;3.13;;;2.20;;
75496;SDS011;64074;47.540;19.072;2023-06-04T13:24:27;5.13;;;2.20;;
75496;SDS011;64074;47.540;19.072;2023-06-04T13:27:30;5.07;;;2.28;;
75496;SDS011;64074;47.540;19.072;2023-06-04T13:30:36;5.95;;;2.30;;
75496;SDS011;64074;47.540;19.072;2023-06-04T13:33:39;9.68;;;2.30;;
75496;SDS011;64074;47.540;19.072;2023-06-04T13:36:43;5.07;;;2.13;;
75496;SDS011;64074;47.540;19.072;2023-06-04T13:39:46;6.25;;;2.22;;
75496;SDS011;64074;47.540;19.072;2023-06-04T13:42:49;4.07;;;2.38;;
75496;SDS011;64074;47.540;19.072;2023-06-04T13:45:52;3.95;;;2.47;;
75496;SDS011;64074;47.540;19.072;2023-06-04T13:48:55;3.45;;;2.45;;
75496;SDS011;64074;47.540;19.072;2023-06-04T13:51:58;3.43;;;2.10;;
75496;SDS011;64074;47.540;19.072;2023-06-04T13:55:04;5.30;;;2.55;;
75496;SDS011;64074;47.540;19.072;2023-06-04T13:58:07;2.92;;;2.25;;
75496;SDS011;64074;47.540;19.072;2023-06-04T14:01:10;5.28;;;2.80;;
75496;SDS011;64074;47.540;19.072;2023-06-04T14:04:13;4.32;;;2.38;;
75496;SDS011;64074;47.540;19.072;2023-06-04T14:07:16;7.00;;;2.40;;
75496;SDS011;64074;47.540;19.072;2023-06-04T14:10:19;4.03;;;2.35;;
75496;SDS011;64074;47.540;19.072;2023-06-04T14:13:22;5.03;;;2.42;;
75496;SDS011;64074;47.540;19.072;2023-06-04T14:16:25;3.55;;;2.33;;
75496;SDS011;64074;47.540;19.072;2023-06-04T14:19:28;4.50;;;2.75;;
75496;SDS011;64074;47.540;19.072;2023-06-04T14:22:31;5.90;;;2.43;;
75496;SDS011;64074;47.540;19.072;2023-06-04T14:25:34;8.35;;;2.53;;
75496;SDS011;64074;47.540;19.072;2023-06-04T14:28:40;4.20;;;2.58;;
75496;SDS011;64074;47.540;19.072;2023-06-04T14:31:45;4.88;;;2.40;;
75496;SDS011;64074;47.540;19.072;2023-06-04T14:34:48;9.55;;;3.75;;
75496;SDS011;64074;47.540;19.072;2023-06-04T14:37:51;4.77;;;2.70;;
75496;SDS011;64074;47.540;19.072;2023-06-04T14:40:54;3.67;;;2.40;;
75496;SDS011;64074;47.540;19.072;2023-06-04T14:43:58;5.05;;;2.60;;
75496;SDS011;64074;47.540;19.072;2023-06-04T14:47:02;4.75;;;2.80;;
75496;SDS011;64074;47.540;19.072;2023-06-04T14:50:05;7.55;;;2.53;;
75496;SDS011;64074;47.540;19.072;2023-06-04T14:53:08;4.77;;;2.33;;
75496;SDS011;64074;47.540;19.072;2023-06-04T14:56:12;6.07;;;2.40;;
75496;SDS011;64074;47.540;19.072;2023-06-04T14:59:14;3.97;;;2.50;;
75496;SDS011;64074;47.540;19.072;2023-06-04T15:02:19;5.13;;;2.40;;
75496;SDS011;64074;47.540;19.072;2023-06-04T15:05:23;3.95;;;2.67;;
75496;SDS011;64074;47.540;19.072;2023-06-04T15:08:25;3.30;;;2.03;;
75496;SDS011;64074;47.540;19.072;2023-06-04T15:11:29;4.65;;;2.20;;
75496;SDS011;64074;47.540;19.072;2023-06-04T15:14:32;3.25;;;2.13;;
75496;SDS011;64074;47.540;19.072;2023-06-04T15:17:36;5.53;;;2.03;;
75496;SDS011;64074;47.540;19.072;2023-06-04T15:20:39;3.45;;;2.30;;
75496;SDS011;64074;47.540;19.072;2023-06-04T15:23:42;5.00;;;2.23;;
75496;SDS011;64074;47.540;19.072;2023-06-04T15:26:46;9.65;;;2.67;;
75496;SDS011;64074;47.540;19.072;2023-06-04T15:29:49;5.03;;;2.10;;
75496;SDS011;64074;47.540;19.072;2023-06-04T15:32:52;2.75;;;2.03;;
75496;SDS011;64074;47.540;19.072;2023-06-04T15:35:54;8.88;;;2.22;;
75496;SDS011;64074;47.540;19.072;2023-06-04T15:38:57;5.43;;;2.20;;
75496;SDS011;64074;47.540;19.072;2023-06-04T15:42:01;3.22;;;2.38;;
75496;SDS011;64074;47.540;19.072;2023-06-04T15:45:04;6.20;;;2.33;;
75496;SDS011;64074;47.540;19.072;2023-06-04T15:48:07;10.02;;;2.13;;
75496;SDS011;64074;47.540;19.072;2023-06-04T15:51:11;5.47;;;2.63;;
75496;SDS011;64074;47.540;19.072;2023-06-04T15:54:14;3.60;;;2.20;;
75496;SDS011;64074;47.540;19.072;2023-06-04T15:57:17;3.95;;;2.30;;
75496;SDS011;64074;47.540;19.072;2023-06-04T16:00:20;6.53;;;2.33;;
75496;SDS011;64074;47.540;19.072;2023-06-04T16:03:23;4.63;;;2.10;;
75496;SDS011;64074;47.540;19.072;2023-06-04T16:06:26;4.95;;;2.53;;
75496;SDS011;64074;47.540;19.072;2023-06-04T16:09:29;4.87;;;2.30;;
75496;SDS011;64074;47.540;19.072;2023-06-04T16:12:32;5.82;;;2.70;;
75496;SDS011;64074;47.540;19.072;2023-06-04T16:15:35;4.13;;;2.70;;
75496;SDS011;64074;47.540;19.072;2023-06-04T16:18:39;6.03;;;2.50;;
75496;SDS011;64074;47.540;19.072;2023-06-04T16:21:42;5.28;;;2.70;;
75496;SDS011;64074;47.540;19.072;2023-06-04T16:24:45;3.83;;;2.70;;
75496;SDS011;64074;47.540;19.072;2023-06-04T16:27:48;5.25;;;2.65;;
75496;SDS011;64074;47.540;19.072;2023-06-04T16:30:51;4.22;;;2.78;;
75496;SDS011;64074;47.540;19.072;2023-06-04T16:33:54;3.33;;;2.40;;
75496;SDS011;64074;47.540;19.072;2023-06-04T16:36:56;3.90;;;2.53;;
75496;SDS011;64074;47.540;19.072;2023-06-04T16:39:59;9.23;;;2.60;;
75496;SDS011;64074;47.540;19.072;2023-06-04T16:43:03;4.70;;;2.70;;
75496;SDS011;64074;47.540;19.072;2023-06-04T16:46:08;4.88;;;2.80;;
75496;SDS011;64074;47.540;19.072;2023-06-04T16:49:11;6.95;;;2.60;;
75496;SDS011;64074;47.540;19.072;2023-06-04T16:52:14;4.00;;;2.45;;
75496;SDS011;64074;47.540;19.072;2023-06-04T16:55:17;5.43;;;2.50;;
75496;SDS011;64074;47.540;19.072;2023-06-04T16:58:20;4.38;;;3.00;;
75496;SDS011;64074;47.540;19.072;2023-06-04T17:01:24;3.55;;;2.60;;
75496;SDS011;64074;47.540;19.072;2023-06-04T17:04:27;4.45;;;2.70;;
75496;SDS011;64074;47.540;19.072;2023-06-04T17:07:31;5.95;;;3.20;;
75496;SDS011;64074;47.540;19.072;2023-06-04T17:10:36;3.90;;;2.70;;
75496;SDS011;64074;47.540;19.072;2023-06-04T17:13:39;7.68;;;2.90;;
75496;SDS011;64074;47.540;19.072;2023-06-04T17:16:43;4.53;;;2.80;;
75496;SDS011;64074;47.540;19.072;2023-06-04T17:19:46;3.60;;;2.78;;
75496;SDS011;64074;47.540;19.072;2023-06-04T17:22:50;5.38;;;2.97;;
75496;SDS011;64074;47.540;19.072;2023-06-04T17:25:53;4.20;;;3.17;;
75496;SDS011;64074;47.540;19.072;2023-06-04T17:28:56;6.32;;;3.03;;
75496;SDS011;64074;47.540;19.072;2023-06-04T17:31:59;4.78;;;3.22;;
75496;SDS011;64074;47.540;19.072;2023-06-04T17:35:03;5.60;;;3.40;;
75496;SDS011;64074;47.540;19.072;2023-06-04T17:38:07;6.00;;;3.17;;
75496;SDS011;64074;47.540;19.072;2023-06-04T17:41:10;6.73;;;4.13;;
75496;SDS011;64074;47.540;19.072;2023-06-04T17:44:14;4.82;;;3.65;;
75496;SDS011;64074;47.540;19.072;2023-06-04T17:47:19;9.02;;;3.65;;
75496;SDS011;64074;47.540;19.072;2023-06-04T17:50:22;7.75;;;3.60;;
75496;SDS011;64074;47.540;19.072;2023-06-04T17:53:26;6.78;;;3.60;;
75496;SDS011;64074;47.540;19.072;2023-06-04T17:56:30;5.70;;;3.17;;
75496;SDS011;64074;47.540;19.072;2023-06-04T17:59:34;6.28;;;3.20;;
75496;SDS011;64074;47.540;19.072;2023-06-04T18:02:37;7.63;;;3.63;;
75496;SDS011;64074;47.540;19.072;2023-06-04T18:05:41;5.47;;;3.60;;
75496;SDS011;64074;47.540;19.072;2023-06-04T18:08:44;6.18;;;3.38;;
75496;SDS011;64074;47.540;19.072;2023-06-04T18:11:47;6.73;;;3.80;;